sensor_id;sensor_type;location;lat;lon;timestamp;P1;durP1;ratioP1;P2;durP2;ratioP2
13943;SDS011;7044;53.286;8.534;2022-09-09T00:01:14;9.02;;;7.07;;
13943;SDS011;7044;53.286;8.534;2022-09-09T00:03:53;14.60;;;6.75;;
13943;SDS011;7044;53.286;8.534;2022-09-09T00:06:24;8.80;;;6.90;;
13943;SDS011;7044;53.286;8.534;2022-09-09T00:08:59;7.20;;;6.25;;
13943;SDS011;7044;53.286;8.534;2022-09-09T00:11:33;7.40;;;6.45;;
13943;SDS011;7044;53.286;8.534;2022-09-09T00:14:08;8.85;;;6.88;;
13943;SDS011;7044;53.286;8.534;2022-09-09T00:16:41;7.10;;;6.40;;
13943;SDS011;7044;53.286;8.534;2022-09-09T00:19:16;10.95;;;6.72;;
13943;SDS011;7044;53.286;8.534;2022-09-09T00:21:49;11.00;;;7.13;;
13943;SDS011;7044;53.286;8.534;2022-09-09T00:24:24;9.13;;;6.28;;
13943;SDS011;7044;53.286;8.534;2022-09-09T00:26:59;16.55;;;6.90;;
13943;SDS011;7044;53.286;8.534;2022-09-09T00:29:32;7.35;;;6.15;;
13943;SDS011;7044;53.286;8.534;2022-09-09T00:32:05;11.77;;;7.25;;
13943;SDS011;7044;53.286;8.534;2022-09-09T00:34:46;7.95;;;6.65;;
13943;SDS011;7044;53.286;8.534;2022-09-09T00:37:15;8.50;;;6.75;;
13943;SDS011;7044;53.286;8.534;2022-09-09T00:39:42;12.02;;;6.63;;
13943;SDS011;7044;53.286;8.534;2022-09-09T00:42:15;9.65;;;6.72;;
13943;SDS011;7044;53.286;8.534;2022-09-09T00:44:48;9.27;;;7.13;;
13943;SDS011;7044;53.286;8.534;2022-09-09T00:47:32;10.35;;;6.93;;
13943;SDS011;7044;53.286;8.534;2022-09-09T00:50:10;9.13;;;6.40;;
13943;SDS011;7044;53.286;8.534;2022-09-09T00:52:54;8.82;;;7.22;;
13943;SDS011;7044;53.286;8.534;2022-09-09T00:55:33;8.45;;;6.57;;
13943;SDS011;7044;53.286;8.534;2022-09-09T00:58:08;8.98;;;7.00;;
13943;SDS011;7044;53.286;8.534;2022-09-09T01:00:37;8.10;;;7.30;;
13943;SDS011;7044;53.286;8.534;2022-09-09T01:03:18;10.50;;;6.72;;
13943;SDS011;7044;53.286;8.534;2022-09-09T01:05:50;7.20;;;6.43;;
13943;SDS011;7044;53.286;8.534;2022-09-09T01:08:34;7.90;;;6.13;;
13943;SDS011;7044;53.286;8.534;2022-09-09T01:11:09;6.97;;;5.68;;
13943;SDS011;7044;53.286;8.534;2022-09-09T01:13:43;8.43;;;7.10;;
13943;SDS011;7044;53.286;8.534;2022-09-09T01:16:15;15.27;;;7.30;;
13943;SDS011;7044;53.286;8.534;2022-09-09T01:18:44;12.00;;;6.38;;
13943;SDS011;7044;53.286;8.534;2022-09-09T01:21:16;9.20;;;7.00;;
13943;SDS011;7044;53.286;8.534;2022-09-09T01:23:57;12.77;;;6.68;;
13943;SDS011;7044;53.286;8.534;2022-09-09T01:26:37;8.95;;;6.82;;
13943;SDS011;7044;53.286;8.534;2022-09-09T01:29:07;9.82;;;7.35;;
13943;SDS011;7044;53.286;8.534;2022-09-09T01:31:37;10.90;;;7.32;;
13943;SDS011;7044;53.286;8.534;2022-09-09T01:34:09;9.18;;;7.00;;
13943;SDS011;7044;53.286;8.534;2022-09-09T01:36:38;9.20;;;7.47;;
13943;SDS011;7044;53.286;8.534;2022-09-09T01:39:09;11.27;;;6.07;;
13943;SDS011;7044;53.286;8.534;2022-09-09T01:41:38;10.93;;;7.72;;
13943;SDS011;7044;53.286;8.534;2022-09-09T01:44:05;8.43;;;6.43;;
13943;SDS011;7044;53.286;8.534;2022-09-09T01:46:33;8.88;;;6.82;;
13943;SDS011;7044;53.286;8.534;2022-09-09T01:49:00;9.85;;;6.97;;
13943;SDS011;7044;53.286;8.534;2022-09-09T01:51:30;9.77;;;7.35;;
13943;SDS011;7044;53.286;8.534;2022-09-09T01:53:57;8.43;;;6.82;;
13943;SDS011;7044;53.286;8.534;2022-09-09T01:56:28;8.60;;;7.53;;
13943;SDS011;7044;53.286;8.534;2022-09-09T01:59:09;9.68;;;7.30;;
13943;SDS011;7044;53.286;8.534;2022-09-09T02:01:46;9.88;;;7.30;;
13943;SDS011;7044;53.286;8.534;2022-09-09T02:04:27;7.43;;;6.55;;
13943;SDS011;7044;53.286;8.534;2022-09-09T02:07:02;10.98;;;7.60;;
13943;SDS011;7044;53.286;8.534;2022-09-09T02:09:36;9.57;;;7.18;;
13943;SDS011;7044;53.286;8.534;2022-09-09T02:12:08;13.52;;;6.75;;
13943;SDS011;7044;53.286;8.534;2022-09-09T02:14:40;9.20;;;6.97;;
13943;SDS011;7044;53.286;8.534;2022-09-09T02:17:11;13.77;;;7.47;;
13943;SDS011;7044;53.286;8.534;2022-09-09T02:19:44;9.40;;;6.78;;
13943;SDS011;7044;53.286;8.534;2022-09-09T02:22:14;10.25;;;7.28;;
13943;SDS011;7044;53.286;8.534;2022-09-09T02:24:43;8.50;;;6.75;;
13943;SDS011;7044;53.286;8.534;2022-09-09T02:27:11;10.40;;;6.97;;
13943;SDS011;7044;53.286;8.534;2022-09-09T02:29:41;9.05;;;7.28;;
13943;SDS011;7044;53.286;8.534;2022-09-09T02:32:11;9.77;;;6.95;;
13943;SDS011;7044;53.286;8.534;2022-09-09T02:34:42;10.45;;;7.15;;
13943;SDS011;7044;53.286;8.534;2022-09-09T02:37:13;10.15;;;7.22;;
13943;SDS011;7044;53.286;8.534;2022-09-09T02:39:43;8.93;;;7.72;;
13943;SDS011;7044;53.286;8.534;2022-09-09T02:42:10;9.65;;;6.80;;
13943;SDS011;7044;53.286;8.534;2022-09-09T02:44:41;9.45;;;7.40;;
13943;SDS011;7044;53.286;8.534;2022-09-09T02:47:20;8.48;;;7.35;;
13943;SDS011;7044;53.286;8.534;2022-09-09T02:49:58;7.63;;;6.72;;
13943;SDS011;7044;53.286;8.534;2022-09-09T02:52:33;11.48;;;7.05;;
13943;SDS011;7044;53.286;8.534;2022-09-09T02:55:06;8.10;;;6.82;;
13943;SDS011;7044;53.286;8.534;2022-09-09T02:57:39;7.80;;;6.80;;
13943;SDS011;7044;53.286;8.534;2022-09-09T03:00:08;8.63;;;7.30;;
13943;SDS011;7044;53.286;8.534;2022-09-09T03:02:36;8.40;;;6.80;;
13943;SDS011;7044;53.286;8.534;2022-09-09T03:05:04;13.73;;;7.30;;
13943;SDS011;7044;53.286;8.534;2022-09-09T03:07:31;11.48;;;6.57;;
13943;SDS011;7044;53.286;8.534;2022-09-09T03:09:58;7.30;;;6.28;;
13943;SDS011;7044;53.286;8.534;2022-09-09T03:12:25;8.68;;;6.97;;
13943;SDS011;7044;53.286;8.534;2022-09-09T03:14:51;8.35;;;6.45;;
13943;SDS011;7044;53.286;8.534;2022-09-09T03:17:20;9.95;;;7.53;;
13943;SDS011;7044;53.286;8.534;2022-09-09T03:19:46;8.77;;;6.53;;
13943;SDS011;7044;53.286;8.534;2022-09-09T03:22:14;8.40;;;7.03;;
13943;SDS011;7044;53.286;8.534;2022-09-09T03:24:41;8.23;;;6.50;;
13943;SDS011;7044;53.286;8.534;2022-09-09T03:27:08;10.85;;;7.40;;
13943;SDS011;7044;53.286;8.534;2022-09-09T03:29:35;9.50;;;6.88;;
13943;SDS011;7044;53.286;8.534;2022-09-09T03:32:02;8.25;;;7.15;;
13943;SDS011;7044;53.286;8.534;2022-09-09T03:34:30;9.90;;;6.82;;
13943;SDS011;7044;53.286;8.534;2022-09-09T03:36:57;8.75;;;6.38;;
13943;SDS011;7044;53.286;8.534;2022-09-09T03:39:24;10.52;;;6.50;;
13943;SDS011;7044;53.286;8.534;2022-09-09T03:41:50;6.93;;;6.15;;
13943;SDS011;7044;53.286;8.534;2022-09-09T03:44:17;9.73;;;7.10;;
13943;SDS011;7044;53.286;8.534;2022-09-09T03:46:44;9.13;;;6.25;;
13943;SDS011;7044;53.286;8.534;2022-09-09T03:49:11;7.63;;;5.93;;
13943;SDS011;7044;53.286;8.534;2022-09-09T03:51:39;10.05;;;6.32;;
13943;SDS011;7044;53.286;8.534;2022-09-09T03:54:06;12.73;;;6.20;;
13943;SDS011;7044;53.286;8.534;2022-09-09T03:56:35;10.63;;;6.80;;
13943;SDS011;7044;53.286;8.534;2022-09-09T03:59:02;11.40;;;6.85;;
13943;SDS011;7044;53.286;8.534;2022-09-09T04:01:29;9.68;;;5.85;;
13943;SDS011;7044;53.286;8.534;2022-09-09T04:03:56;9.30;;;6.20;;
13943;SDS011;7044;53.286;8.534;2022-09-09T04:06:23;8.00;;;6.50;;
13943;SDS011;7044;53.286;8.534;2022-09-09T04:08:52;8.73;;;6.18;;
13943;SDS011;7044;53.286;8.534;2022-09-09T04:11:20;7.15;;;6.25;;
13943;SDS011;7044;53.286;8.534;2022-09-09T04:13:47;9.15;;;6.07;;
13943;SDS011;7044;53.286;8.534;2022-09-09T04:16:14;9.95;;;7.10;;
13943;SDS011;7044;53.286;8.534;2022-09-09T04:18:41;13.00;;;6.93;;
13943;SDS011;7044;53.286;8.534;2022-09-09T04:21:09;9.05;;;6.35;;
13943;SDS011;7044;53.286;8.534;2022-09-09T04:23:37;7.97;;;6.05;;
13943;SDS011;7044;53.286;8.534;2022-09-09T04:26:05;7.93;;;6.40;;
13943;SDS011;7044;53.286;8.534;2022-09-09T04:28:34;9.40;;;6.43;;
13943;SDS011;7044;53.286;8.534;2022-09-09T04:31:06;11.00;;;6.60;;
13943;SDS011;7044;53.286;8.534;2022-09-09T04:33:34;7.40;;;6.65;;
13943;SDS011;7044;53.286;8.534;2022-09-09T04:36:01;9.98;;;6.40;;
13943;SDS011;7044;53.286;8.534;2022-09-09T04:38:29;7.90;;;6.43;;
13943;SDS011;7044;53.286;8.534;2022-09-09T04:40:55;11.25;;;6.18;;
13943;SDS011;7044;53.286;8.534;2022-09-09T04:43:23;11.23;;;6.25;;
13943;SDS011;7044;53.286;8.534;2022-09-09T04:45:52;7.30;;;5.57;;
13943;SDS011;7044;53.286;8.534;2022-09-09T04:48:19;8.98;;;6.90;;
13943;SDS011;7044;53.286;8.534;2022-09-09T04:50:53;10.10;;;6.15;;
13943;SDS011;7044;53.286;8.534;2022-09-09T04:53:21;13.60;;;6.25;;
13943;SDS011;7044;53.286;8.534;2022-09-09T04:55:48;6.63;;;5.68;;
13943;SDS011;7044;53.286;8.534;2022-09-09T04:58:15;10.45;;;6.35;;
13943;SDS011;7044;53.286;8.534;2022-09-09T05:00:45;7.85;;;5.82;;
13943;SDS011;7044;53.286;8.534;2022-09-09T05:03:11;13.82;;;6.85;;
13943;SDS011;7044;53.286;8.534;2022-09-09T05:05:38;8.07;;;5.60;;
13943;SDS011;7044;53.286;8.534;2022-09-09T05:08:06;8.43;;;5.75;;
13943;SDS011;7044;53.286;8.534;2022-09-09T05:10:34;9.82;;;6.25;;
13943;SDS011;7044;53.286;8.534;2022-09-09T05:13:03;7.20;;;5.63;;
13943;SDS011;7044;53.286;8.534;2022-09-09T05:15:31;10.23;;;5.45;;
13943;SDS011;7044;53.286;8.534;2022-09-09T05:17:59;5.53;;;4.90;;
13943;SDS011;7044;53.286;8.534;2022-09-09T05:20:27;8.80;;;5.68;;
13943;SDS011;7044;53.286;8.534;2022-09-09T05:22:54;8.05;;;5.82;;
13943;SDS011;7044;53.286;8.534;2022-09-09T05:25:22;8.10;;;5.03;;
13943;SDS011;7044;53.286;8.534;2022-09-09T05:27:51;8.25;;;5.18;;
13943;SDS011;7044;53.286;8.534;2022-09-09T05:30:18;9.40;;;5.50;;
13943;SDS011;7044;53.286;8.534;2022-09-09T05:32:47;7.32;;;5.25;;
13943;SDS011;7044;53.286;8.534;2022-09-09T05:35:15;8.73;;;5.10;;
13943;SDS011;7044;53.286;8.534;2022-09-09T05:37:44;7.30;;;5.35;;
13943;SDS011;7044;53.286;8.534;2022-09-09T05:40:11;7.20;;;5.03;;
13943;SDS011;7044;53.286;8.534;2022-09-09T05:42:38;5.93;;;4.95;;
13943;SDS011;7044;53.286;8.534;2022-09-09T05:45:05;9.68;;;5.30;;
13943;SDS011;7044;53.286;8.534;2022-09-09T05:47:33;7.22;;;4.85;;
13943;SDS011;7044;53.286;8.534;2022-09-09T05:50:02;3.72;;;3.28;;
13943;SDS011;7044;53.286;8.534;2022-09-09T05:52:31;6.50;;;5.22;;
13943;SDS011;7044;53.286;8.534;2022-09-09T05:54:58;7.32;;;5.45;;
13943;SDS011;7044;53.286;8.534;2022-09-09T05:57:25;6.88;;;5.63;;
13943;SDS011;7044;53.286;8.534;2022-09-09T05:59:52;5.65;;;4.78;;
13943;SDS011;7044;53.286;8.534;2022-09-09T06:02:19;6.75;;;5.00;;
13943;SDS011;7044;53.286;8.534;2022-09-09T06:04:46;7.90;;;5.60;;
13943;SDS011;7044;53.286;8.534;2022-09-09T06:07:13;7.88;;;5.00;;
13943;SDS011;7044;53.286;8.534;2022-09-09T06:09:41;8.90;;;6.07;;
13943;SDS011;7044;53.286;8.534;2022-09-09T06:12:08;14.18;;;5.65;;
13943;SDS011;7044;53.286;8.534;2022-09-09T06:14:35;7.63;;;5.50;;
13943;SDS011;7044;53.286;8.534;2022-09-09T06:17:02;11.18;;;5.38;;
13943;SDS011;7044;53.286;8.534;2022-09-09T06:19:30;7.18;;;5.65;;
13943;SDS011;7044;53.286;8.534;2022-09-09T06:21:56;7.35;;;5.72;;
13943;SDS011;7044;53.286;8.534;2022-09-09T06:24:23;11.13;;;6.32;;
13943;SDS011;7044;53.286;8.534;2022-09-09T06:26:51;9.52;;;5.82;;
13943;SDS011;7044;53.286;8.534;2022-09-09T06:29:19;14.43;;;5.97;;
13943;SDS011;7044;53.286;8.534;2022-09-09T06:31:45;9.98;;;5.80;;
13943;SDS011;7044;53.286;8.534;2022-09-09T06:34:12;9.85;;;5.80;;
13943;SDS011;7044;53.286;8.534;2022-09-09T06:36:39;9.13;;;5.75;;
13943;SDS011;7044;53.286;8.534;2022-09-09T06:39:06;6.57;;;5.13;;
13943;SDS011;7044;53.286;8.534;2022-09-09T06:41:36;6.35;;;5.07;;
13943;SDS011;7044;53.286;8.534;2022-09-09T06:44:04;7.35;;;6.03;;
13943;SDS011;7044;53.286;8.534;2022-09-09T06:46:31;11.90;;;6.38;;
13943;SDS011;7044;53.286;8.534;2022-09-09T06:49:00;8.55;;;4.97;;
13943;SDS011;7044;53.286;8.534;2022-09-09T06:51:28;8.02;;;5.97;;
13943;SDS011;7044;53.286;8.534;2022-09-09T06:53:56;6.53;;;5.20;;
13943;SDS011;7044;53.286;8.534;2022-09-09T06:56:25;7.93;;;5.35;;
13943;SDS011;7044;53.286;8.534;2022-09-09T06:58:54;6.13;;;5.20;;
13943;SDS011;7044;53.286;8.534;2022-09-09T07:01:23;7.70;;;4.75;;
13943;SDS011;7044;53.286;8.534;2022-09-09T07:03:52;8.10;;;4.80;;
13943;SDS011;7044;53.286;8.534;2022-09-09T07:06:21;6.22;;;4.90;;
13943;SDS011;7044;53.286;8.534;2022-09-09T07:08:50;7.10;;;4.80;;
13943;SDS011;7044;53.286;8.534;2022-09-09T07:11:18;6.22;;;4.82;;
13943;SDS011;7044;53.286;8.534;2022-09-09T07:13:46;5.30;;;4.40;;
13943;SDS011;7044;53.286;8.534;2022-09-09T07:16:13;7.93;;;5.05;;
13943;SDS011;7044;53.286;8.534;2022-09-09T07:18:42;7.05;;;4.55;;
13943;SDS011;7044;53.286;8.534;2022-09-09T07:21:10;5.93;;;4.65;;
13943;SDS011;7044;53.286;8.534;2022-09-09T07:23:38;6.50;;;4.93;;
13943;SDS011;7044;53.286;8.534;2022-09-09T07:26:07;4.75;;;4.30;;
13943;SDS011;7044;53.286;8.534;2022-09-09T07:28:35;5.13;;;4.18;;
13943;SDS011;7044;53.286;8.534;2022-09-09T07:31:02;6.45;;;3.97;;
13943;SDS011;7044;53.286;8.534;2022-09-09T07:33:30;4.65;;;4.20;;
13943;SDS011;7044;53.286;8.534;2022-09-09T07:36:03;4.57;;;3.95;;
13943;SDS011;7044;53.286;8.534;2022-09-09T07:38:33;4.95;;;3.97;;
13943;SDS011;7044;53.286;8.534;2022-09-09T07:41:05;4.03;;;3.67;;
13943;SDS011;7044;53.286;8.534;2022-09-09T07:43:36;7.53;;;4.18;;
13943;SDS011;7044;53.286;8.534;2022-09-09T07:46:03;7.20;;;4.72;;
13943;SDS011;7044;53.286;8.534;2022-09-09T07:48:31;6.50;;;4.45;;
13943;SDS011;7044;53.286;8.534;2022-09-09T07:51:09;6.35;;;4.15;;
13943;SDS011;7044;53.286;8.534;2022-09-09T07:53:42;6.50;;;3.92;;
13943;SDS011;7044;53.286;8.534;2022-09-09T07:56:09;6.57;;;4.28;;
13943;SDS011;7044;53.286;8.534;2022-09-09T07:58:38;3.92;;;3.63;;
13943;SDS011;7044;53.286;8.534;2022-09-09T08:01:07;4.18;;;3.20;;
13943;SDS011;7044;53.286;8.534;2022-09-09T08:03:34;5.57;;;3.40;;
13943;SDS011;7044;53.286;8.534;2022-09-09T08:06:01;5.15;;;3.63;;
13943;SDS011;7044;53.286;8.534;2022-09-09T08:08:30;10.35;;;3.33;;
13943;SDS011;7044;53.286;8.534;2022-09-09T08:11:04;6.55;;;3.70;;
13943;SDS011;7044;53.286;8.534;2022-09-09T08:13:32;7.13;;;3.08;;
13943;SDS011;7044;53.286;8.534;2022-09-09T08:16:06;3.53;;;2.58;;
13943;SDS011;7044;53.286;8.534;2022-09-09T08:18:34;4.35;;;2.58;;
13943;SDS011;7044;53.286;8.534;2022-09-09T08:21:06;7.72;;;2.42;;
13943;SDS011;7044;53.286;8.534;2022-09-09T08:23:38;5.97;;;2.58;;
13943;SDS011;7044;53.286;8.534;2022-09-09T08:26:06;3.28;;;2.45;;
13943;SDS011;7044;53.286;8.534;2022-09-09T08:28:36;5.57;;;2.97;;
13943;SDS011;7044;53.286;8.534;2022-09-09T08:31:05;3.22;;;2.38;;
13943;SDS011;7044;53.286;8.534;2022-09-09T08:33:32;6.60;;;2.95;;
13943;SDS011;7044;53.286;8.534;2022-09-09T08:36:01;3.80;;;2.60;;
13943;SDS011;7044;53.286;8.534;2022-09-09T08:38:28;5.60;;;2.60;;
13943;SDS011;7044;53.286;8.534;2022-09-09T08:40:57;5.60;;;3.05;;
13943;SDS011;7044;53.286;8.534;2022-09-09T08:43:37;7.90;;;3.30;;
13943;SDS011;7044;53.286;8.534;2022-09-09T08:46:06;4.47;;;3.65;;
13943;SDS011;7044;53.286;8.534;2022-09-09T08:48:41;6.10;;;3.78;;
13943;SDS011;7044;53.286;8.534;2022-09-09T08:51:17;8.20;;;3.92;;
13943;SDS011;7044;53.286;8.534;2022-09-09T08:53:46;12.05;;;4.00;;
13943;SDS011;7044;53.286;8.534;2022-09-09T08:56:21;4.55;;;4.13;;
13943;SDS011;7044;53.286;8.534;2022-09-09T08:58:52;5.85;;;4.05;;
13943;SDS011;7044;53.286;8.534;2022-09-09T09:04:14;5.82;;;4.07;;
13943;SDS011;7044;53.286;8.534;2022-09-09T09:06:59;6.55;;;3.15;;
13943;SDS011;7044;53.286;8.534;2022-09-09T09:09:35;3.13;;;2.80;;
13943;SDS011;7044;53.286;8.534;2022-09-09T09:12:13;6.45;;;3.50;;
13943;SDS011;7044;53.286;8.534;2022-09-09T09:14:42;6.13;;;3.40;;
13943;SDS011;7044;53.286;8.534;2022-09-09T09:17:11;4.93;;;3.88;;
13943;SDS011;7044;53.286;8.534;2022-09-09T09:19:40;5.45;;;3.17;;
13943;SDS011;7044;53.286;8.534;2022-09-09T09:22:11;5.97;;;3.25;;
13943;SDS011;7044;53.286;8.534;2022-09-09T09:24:45;5.13;;;3.35;;
13943;SDS011;7044;53.286;8.534;2022-09-09T09:27:21;4.10;;;3.20;;
13943;SDS011;7044;53.286;8.534;2022-09-09T09:29:56;9.25;;;3.72;;
13943;SDS011;7044;53.286;8.534;2022-09-09T09:32:26;5.47;;;3.60;;
13943;SDS011;7044;53.286;8.534;2022-09-09T09:34:57;5.38;;;3.92;;
13943;SDS011;7044;53.286;8.534;2022-09-09T09:37:30;4.45;;;3.95;;
13943;SDS011;7044;53.286;8.534;2022-09-09T09:40:07;4.97;;;4.15;;
13943;SDS011;7044;53.286;8.534;2022-09-09T09:42:36;6.00;;;3.78;;
13943;SDS011;7044;53.286;8.534;2022-09-09T09:45:07;5.40;;;4.90;;
13943;SDS011;7044;53.286;8.534;2022-09-09T09:47:43;7.20;;;4.53;;
13943;SDS011;7044;53.286;8.534;2022-09-09T09:50:15;7.28;;;4.90;;
13943;SDS011;7044;53.286;8.534;2022-09-09T09:52:51;9.98;;;5.75;;
13943;SDS011;7044;53.286;8.534;2022-09-09T09:55:20;9.07;;;5.40;;
13943;SDS011;7044;53.286;8.534;2022-09-09T09:57:50;7.28;;;5.63;;
13943;SDS011;7044;53.286;8.534;2022-09-09T10:00:18;7.05;;;5.13;;
13943;SDS011;7044;53.286;8.534;2022-09-09T10:02:47;5.00;;;4.30;;
13943;SDS011;7044;53.286;8.534;2022-09-09T10:05:17;6.78;;;4.57;;
13943;SDS011;7044;53.286;8.534;2022-09-09T10:07:46;5.88;;;4.53;;
13943;SDS011;7044;53.286;8.534;2022-09-09T10:10:26;4.80;;;4.32;;
13943;SDS011;7044;53.286;8.534;2022-09-09T10:13:02;5.03;;;4.53;;
13943;SDS011;7044;53.286;8.534;2022-09-09T10:15:39;6.15;;;4.22;;
13943;SDS011;7044;53.286;8.534;2022-09-09T10:18:25;8.07;;;4.80;;
13943;SDS011;7044;53.286;8.534;2022-09-09T10:21:06;3.90;;;3.47;;
13943;SDS011;7044;53.286;8.534;2022-09-09T10:23:54;3.95;;;3.40;;
13943;SDS011;7044;53.286;8.534;2022-09-09T10:26:35;4.45;;;3.30;;
13943;SDS011;7044;53.286;8.534;2022-09-09T10:32:06;3.55;;;3.10;;
13943;SDS011;7044;53.286;8.534;2022-09-09T10:34:49;4.35;;;3.17;;
13943;SDS011;7044;53.286;8.534;2022-09-09T10:37:30;5.38;;;3.17;;
13943;SDS011;7044;53.286;8.534;2022-09-09T10:40:26;5.60;;;3.42;;
13943;SDS011;7044;53.286;8.534;2022-09-09T10:42:59;7.68;;;3.03;;
13943;SDS011;7044;53.286;8.534;2022-09-09T10:45:38;5.72;;;2.97;;
13943;SDS011;7044;53.286;8.534;2022-09-09T10:48:14;4.68;;;3.20;;
13943;SDS011;7044;53.286;8.534;2022-09-09T10:50:57;5.40;;;3.10;;
13943;SDS011;7044;53.286;8.534;2022-09-09T10:53:35;7.25;;;2.95;;
13943;SDS011;7044;53.286;8.534;2022-09-09T10:56:06;3.35;;;2.83;;
13943;SDS011;7044;53.286;8.534;2022-09-09T10:58:38;5.13;;;2.85;;
13943;SDS011;7044;53.286;8.534;2022-09-09T11:01:12;4.00;;;2.85;;
13943;SDS011;7044;53.286;8.534;2022-09-09T11:03:45;4.80;;;2.90;;
13943;SDS011;7044;53.286;8.534;2022-09-09T11:06:19;3.03;;;2.78;;
13943;SDS011;7044;53.286;8.534;2022-09-09T11:08:47;5.53;;;2.90;;
13943;SDS011;7044;53.286;8.534;2022-09-09T11:11:16;2.97;;;2.65;;
13943;SDS011;7044;53.286;8.534;2022-09-09T11:13:49;10.18;;;3.17;;
13943;SDS011;7044;53.286;8.534;2022-09-09T11:16:24;3.97;;;2.63;;
13943;SDS011;7044;53.286;8.534;2022-09-09T11:18:55;7.95;;;3.35;;
13943;SDS011;7044;53.286;8.534;2022-09-09T11:21:28;4.00;;;3.15;;
13943;SDS011;7044;53.286;8.534;2022-09-09T11:23:57;4.68;;;3.10;;
13943;SDS011;7044;53.286;8.534;2022-09-09T11:26:29;5.13;;;3.15;;
13943;SDS011;7044;53.286;8.534;2022-09-09T11:29:13;5.13;;;3.20;;
13943;SDS011;7044;53.286;8.534;2022-09-09T11:32:03;7.22;;;3.10;;
13943;SDS011;7044;53.286;8.534;2022-09-09T11:34:44;5.25;;;2.72;;
13943;SDS011;7044;53.286;8.534;2022-09-09T11:37:22;6.22;;;3.40;;
13943;SDS011;7044;53.286;8.534;2022-09-09T11:40:07;3.20;;;2.83;;
13943;SDS011;7044;53.286;8.534;2022-09-09T11:42:41;6.32;;;3.17;;
13943;SDS011;7044;53.286;8.534;2022-09-09T11:45:15;3.35;;;3.15;;
13943;SDS011;7044;53.286;8.534;2022-09-09T11:47:53;5.07;;;3.22;;
13943;SDS011;7044;53.286;8.534;2022-09-09T11:50:29;6.97;;;4.25;;
13943;SDS011;7044;53.286;8.534;2022-09-09T11:53:18;7.30;;;4.28;;
13943;SDS011;7044;53.286;8.534;2022-09-09T11:55:47;6.35;;;3.45;;
13943;SDS011;7044;53.286;8.534;2022-09-09T11:58:26;5.78;;;3.70;;
13943;SDS011;7044;53.286;8.534;2022-09-09T12:00:57;5.65;;;3.75;;
13943;SDS011;7044;53.286;8.534;2022-09-09T12:03:34;6.53;;;3.40;;
13943;SDS011;7044;53.286;8.534;2022-09-09T12:06:14;8.77;;;2.88;;
13943;SDS011;7044;53.286;8.534;2022-09-09T12:08:46;4.60;;;2.90;;
13943;SDS011;7044;53.286;8.534;2022-09-09T12:11:27;2.97;;;2.40;;
13943;SDS011;7044;53.286;8.534;2022-09-09T12:13:56;4.57;;;2.83;;
13943;SDS011;7044;53.286;8.534;2022-09-09T12:16:28;5.35;;;2.78;;
13943;SDS011;7044;53.286;8.534;2022-09-09T12:19:06;4.65;;;2.42;;
13943;SDS011;7044;53.286;8.534;2022-09-09T12:21:42;5.80;;;2.58;;
13943;SDS011;7044;53.286;8.534;2022-09-09T12:24:15;6.18;;;2.83;;
13943;SDS011;7044;53.286;8.534;2022-09-09T12:26:51;4.15;;;2.78;;
13943;SDS011;7044;53.286;8.534;2022-09-09T12:29:24;5.75;;;2.83;;
13943;SDS011;7044;53.286;8.534;2022-09-09T12:32:00;6.00;;;3.13;;
13943;SDS011;7044;53.286;8.534;2022-09-09T12:34:36;4.20;;;2.92;;
13943;SDS011;7044;53.286;8.534;2022-09-09T12:37:08;6.63;;;2.80;;
13943;SDS011;7044;53.286;8.534;2022-09-09T12:39:44;6.32;;;2.80;;
13943;SDS011;7044;53.286;8.534;2022-09-09T12:42:17;5.90;;;2.45;;
13943;SDS011;7044;53.286;8.534;2022-09-09T12:44:54;3.78;;;2.45;;
13943;SDS011;7044;53.286;8.534;2022-09-09T12:47:24;4.38;;;2.97;;
13943;SDS011;7044;53.286;8.534;2022-09-09T12:49:58;12.02;;;2.90;;
13943;SDS011;7044;53.286;8.534;2022-09-09T12:52:26;9.73;;;3.53;;
13943;SDS011;7044;53.286;8.534;2022-09-09T12:54:56;2.72;;;2.47;;
13943;SDS011;7044;53.286;8.534;2022-09-09T12:57:24;7.03;;;3.20;;
13943;SDS011;7044;53.286;8.534;2022-09-09T13:00:03;4.68;;;2.50;;
13943;SDS011;7044;53.286;8.534;2022-09-09T13:02:45;3.90;;;2.42;;
13943;SDS011;7044;53.286;8.534;2022-09-09T13:05:17;4.93;;;2.72;;
13943;SDS011;7044;53.286;8.534;2022-09-09T13:07:47;3.90;;;2.63;;
13943;SDS011;7044;53.286;8.534;2022-09-09T13:10:15;3.53;;;2.70;;
13943;SDS011;7044;53.286;8.534;2022-09-09T13:12:51;5.60;;;2.88;;
13943;SDS011;7044;53.286;8.534;2022-09-09T13:15:20;5.63;;;3.00;;
13943;SDS011;7044;53.286;8.534;2022-09-09T13:17:50;7.00;;;2.58;;
13943;SDS011;7044;53.286;8.534;2022-09-09T13:20:20;6.47;;;2.70;;
13943;SDS011;7044;53.286;8.534;2022-09-09T13:22:49;4.03;;;2.53;;
13943;SDS011;7044;53.286;8.534;2022-09-09T13:25:18;4.65;;;2.25;;
13943;SDS011;7044;53.286;8.534;2022-09-09T13:28:00;5.18;;;2.45;;
13943;SDS011;7044;53.286;8.534;2022-09-09T13:30:29;5.35;;;2.33;;
13943;SDS011;7044;53.286;8.534;2022-09-09T13:33:20;3.63;;;2.00;;
13943;SDS011;7044;53.286;8.534;2022-09-09T13:35:51;5.20;;;2.42;;
13943;SDS011;7044;53.286;8.534;2022-09-09T13:38:20;5.82;;;1.67;;
13943;SDS011;7044;53.286;8.534;2022-09-09T13:40:53;2.78;;;1.85;;
13943;SDS011;7044;53.286;8.534;2022-09-09T13:43:23;5.93;;;2.05;;
13943;SDS011;7044;53.286;8.534;2022-09-09T13:45:54;5.57;;;2.70;;
13943;SDS011;7044;53.286;8.534;2022-09-09T13:48:23;6.90;;;2.55;;
13943;SDS011;7044;53.286;8.534;2022-09-09T13:50:56;3.53;;;2.63;;
13943;SDS011;7044;53.286;8.534;2022-09-09T13:53:25;4.45;;;2.85;;
13943;SDS011;7044;53.286;8.534;2022-09-09T13:55:52;8.13;;;3.20;;
13943;SDS011;7044;53.286;8.534;2022-09-09T13:58:19;6.68;;;2.60;;
13943;SDS011;7044;53.286;8.534;2022-09-09T14:00:47;9.38;;;2.60;;
13943;SDS011;7044;53.286;8.534;2022-09-09T14:03:14;3.10;;;2.20;;
13943;SDS011;7044;53.286;8.534;2022-09-09T14:05:41;5.65;;;2.00;;
13943;SDS011;7044;53.286;8.534;2022-09-09T14:08:14;7.45;;;2.17;;
13943;SDS011;7044;53.286;8.534;2022-09-09T14:10:46;7.03;;;2.53;;
13943;SDS011;7044;53.286;8.534;2022-09-09T14:13:13;6.28;;;2.10;;
13943;SDS011;7044;53.286;8.534;2022-09-09T14:15:40;4.13;;;2.17;;
13943;SDS011;7044;53.286;8.534;2022-09-09T14:18:08;3.42;;;2.33;;
13943;SDS011;7044;53.286;8.534;2022-09-09T14:20:37;5.90;;;2.65;;
13943;SDS011;7044;53.286;8.534;2022-09-09T14:23:04;5.00;;;2.38;;
13943;SDS011;7044;53.286;8.534;2022-09-09T14:25:33;6.80;;;3.28;;
13943;SDS011;7044;53.286;8.534;2022-09-09T14:28:00;5.65;;;2.80;;
13943;SDS011;7044;53.286;8.534;2022-09-09T14:30:27;5.45;;;3.15;;
13943;SDS011;7044;53.286;8.534;2022-09-09T14:32:54;5.78;;;3.30;;
13943;SDS011;7044;53.286;8.534;2022-09-09T14:35:21;4.07;;;2.70;;
13943;SDS011;7044;53.286;8.534;2022-09-09T14:37:47;5.18;;;3.28;;
13943;SDS011;7044;53.286;8.534;2022-09-09T14:40:14;6.05;;;3.05;;
13943;SDS011;7044;53.286;8.534;2022-09-09T14:42:43;3.45;;;2.65;;
13943;SDS011;7044;53.286;8.534;2022-09-09T14:45:10;3.90;;;3.05;;
13943;SDS011;7044;53.286;8.534;2022-09-09T14:47:37;6.95;;;3.47;;
13943;SDS011;7044;53.286;8.534;2022-09-09T14:50:04;6.93;;;3.42;;
13943;SDS011;7044;53.286;8.534;2022-09-09T14:52:33;9.63;;;3.65;;
13943;SDS011;7044;53.286;8.534;2022-09-09T14:55:00;5.35;;;3.30;;
13943;SDS011;7044;53.286;8.534;2022-09-09T14:57:26;5.10;;;3.40;;
13943;SDS011;7044;53.286;8.534;2022-09-09T14:59:54;4.75;;;3.30;;
13943;SDS011;7044;53.286;8.534;2022-09-09T15:02:21;9.10;;;3.83;;
13943;SDS011;7044;53.286;8.534;2022-09-09T15:04:48;4.85;;;3.67;;
13943;SDS011;7044;53.286;8.534;2022-09-09T15:07:16;4.82;;;3.60;;
13943;SDS011;7044;53.286;8.534;2022-09-09T15:09:44;6.60;;;4.13;;
13943;SDS011;7044;53.286;8.534;2022-09-09T15:12:12;5.93;;;3.55;;
13943;SDS011;7044;53.286;8.534;2022-09-09T15:14:39;4.85;;;3.50;;
13943;SDS011;7044;53.286;8.534;2022-09-09T15:17:07;7.47;;;3.65;;
13943;SDS011;7044;53.286;8.534;2022-09-09T15:19:34;4.45;;;3.08;;
13943;SDS011;7044;53.286;8.534;2022-09-09T15:22:02;8.13;;;3.97;;
13943;SDS011;7044;53.286;8.534;2022-09-09T15:24:30;4.70;;;3.50;;
13943;SDS011;7044;53.286;8.534;2022-09-09T15:26:57;5.45;;;3.60;;
13943;SDS011;7044;53.286;8.534;2022-09-09T15:29:24;6.38;;;3.72;;